Time;durP1;ratioP1;P1;durP2;ratioP2;P2;SDS_P1;SDS_P2;PMS_P1;PMS_P2;Temp;Humidity;BMP_temperature;BMP_pressure;BME280_temperature;BME280_humidity;BME280_pressure;Samples;Min_cycle;Max_cycle;Signal;HPM_P1;HPM_P2
2021/06/16 04:01:24;;;;;;;6.37;5.80;;;19.30;99.90;;;;;;5584510;23;21048;-66
2021/06/16 04:03:50;;;;;;;6.40;5.90;;;19.40;99.90;;;;;;4994687;28;20450;-66
2021/06/16 04:06:18;;;;;;;6.67;6.13;;;19.40;99.90;;;;;;4994512;28;20930;-66
2021/06/16 04:08:45;;;;;;;6.50;5.90;;;19.50;99.90;;;;;;4994734;28;20450;-65
2021/06/16 04:11:12;;;;;;;6.90;6.17;;;19.40;99.90;;;;;;4994716;28;20470;-66
2021/06/16 04:13:39;;;;;;;8.20;7.47;;;19.50;99.90;;;;;;4995433;28;20486;-66
2021/06/16 04:16:07;;;;;;;7.33;6.73;;;19.50;99.90;;;;;;4994493;28;20460;-66
2021/06/16 04:18:35;;;;;;;7.70;7.00;;;19.50;99.90;;;;;;4994708;28;20481;-67
2021/06/16 04:21:02;;;;;;;7.80;6.73;;;19.50;99.90;;;;;;4994545;28;20477;-66
2021/06/16 04:23:30;;;;;;;8.67;7.30;;;19.40;99.90;;;;;;4994189;28;20971;-66
2021/06/16 04:25:56;;;;;;;9.60;7.67;;;19.40;99.90;;;;;;4993802;28;20464;-67
2021/06/16 04:28:23;;;;;;;8.03;7.30;;;19.20;99.90;;;;;;4994015;28;20801;-67
2021/06/16 04:30:50;;;;;;;8.90;8.20;;;19.20;99.90;;;;;;4995088;28;20484;-66
2021/06/16 04:33:17;;;;;;;8.50;7.70;;;19.20;99.90;;;;;;4995733;28;20478;-67
2021/06/16 04:35:45;;;;;;;7.80;7.20;;;19.20;99.90;;;;;;4996054;28;20460;-66
2021/06/16 04:38:12;;;;;;;7.83;7.23;;;19.20;99.90;;;;;;4995612;28;20872;-66
2021/06/16 04:40:38;;;;;;;9.07;8.27;;;19.20;99.90;;;;;;4994306;28;20477;-67
2021/06/16 04:43:05;;;;;;;9.53;8.77;;;19.20;99.90;;;;;;4994504;28;20461;-67
2021/06/16 04:45:32;;;;;;;9.30;7.80;;;19.30;99.90;;;;;;4994285;28;20465;-66
2021/06/16 04:47:59;;;;;;;10.47;9.27;;;19.30;99.90;;;;;;4994141;28;20453;-66
2021/06/16 04:50:25;;;;;;;9.37;8.67;;;19.30;99.90;;;;;;4993789;28;20454;-66
2021/06/16 04:52:53;;;;;;;10.40;9.13;;;19.40;99.90;;;;;;4994027;28;20473;-66
2021/06/16 04:55:20;;;;;;;8.43;7.60;;;19.50;99.90;;;;;;4994031;28;20457;-65
2021/06/16 04:57:47;;;;;;;8.67;8.00;;;19.50;99.90;;;;;;4993727;28;20460;-65
2021/06/16 05:00:16;;;;;;;9.53;8.63;;;19.60;99.90;;;;;;4993839;28;20468;-65
2021/06/16 05:02:43;;;;;;;9.80;8.33;;;19.80;99.90;;;;;;4994087;28;20457;-63
2021/06/16 05:05:11;;;;;;;10.13;9.40;;;19.90;99.90;;;;;;4993659;28;20465;-64
2021/06/16 05:07:38;;;;;;;9.43;8.73;;;20.00;99.90;;;;;;4993904;28;20486;-63
2021/06/16 05:10:07;;;;;;;15.27;9.53;;;19.90;99.90;;;;;;4994024;28;20454;-64
2021/06/16 05:12:33;;;;;;;14.70;9.57;;;19.90;99.90;;;;;;4993755;28;20513;-64
2021/06/16 05:15:00;;;;;;;11.20;10.07;;;20.00;99.90;;;;;;4993931;28;20453;-64
2021/06/16 05:17:27;;;;;;;11.50;9.13;;;20.00;99.90;;;;;;4993914;28;20454;-64
2021/06/16 05:19:57;;;;;;;10.20;9.20;;;20.00;99.90;;;;;;4993506;28;20499;-64
2021/06/16 05:22:24;;;;;;;11.60;9.67;;;20.00;99.90;;;;;;4993950;28;20477;-65
2021/06/16 05:24:51;;;;;;;9.60;8.63;;;20.10;99.90;;;;;;4993515;28;20461;-65
2021/06/16 05:27:19;;;;;;;9.57;8.60;;;20.00;99.90;;;;;;4993312;28;20915;-65
2021/06/16 05:29:46;;;;;;;11.57;8.83;;;20.10;99.90;;;;;;4993869;28;20458;-65
2021/06/16 05:32:14;;;;;;;8.43;7.67;;;20.20;99.90;;;;;;4994407;28;20833;-65
2021/06/16 05:34:40;;;;;;;10.07;9.13;;;20.20;99.90;;;;;;4993454;28;20836;-65
2021/06/16 05:37:07;;;;;;;9.47;8.57;;;20.30;99.90;;;;;;4993893;28;20487;-65
2021/06/16 05:39:34;;;;;;;9.20;8.50;;;20.40;99.90;;;;;;4996971;28;20488;-65
2021/06/16 05:42:01;;;;;;;8.77;7.70;;;20.50;99.90;;;;;;4997085;28;20478;-65
2021/06/16 05:44:29;;;;;;;8.00;7.17;;;20.50;99.90;;;;;;4996996;28;20807;-65
2021/06/16 05:46:56;;;;;;;8.17;7.47;;;20.70;99.90;;;;;;4997158;28;20453;-65
2021/06/16 05:49:23;;;;;;;7.00;6.40;;;20.80;99.90;;;;;;4997149;28;20464;-65
2021/06/16 05:51:49;;;;;;;7.30;6.60;;;21.00;99.90;;;;;;4997097;28;20473;-65
2021/06/16 05:54:16;;;;;;;6.33;5.90;;;21.10;99.90;;;;;;4996740;28;21012;-65
2021/06/16 05:56:43;;;;;;;6.90;6.10;;;21.40;99.90;;;;;;4997070;28;20457;-65
2021/06/16 05:59:10;;;;;;;6.17;5.57;;;21.60;99.90;;;;;;4997103;28;20458;-65
2021/06/16 06:01:38;;;;;;;6.97;6.30;;;21.80;99.90;;;;;;4996766;28;20485;-65
2021/06/16 06:04:06;;;;;;;6.40;5.80;;;21.90;99.90;;;;;;4996965;28;20453;-65
2021/06/16 06:06:33;;;;;;;6.67;6.17;;;22.10;99.90;;;;;;4997032;28;20461;-65
2021/06/16 06:09:00;;;;;;;6.90;5.73;;;22.20;99.90;;;;;;4996991;28;20815;-65
2021/06/16 06:11:27;;;;;;;7.23;6.43;;;22.40;99.90;;;;;;4996768;28;20481;-65
2021/06/16 06:13:54;;;;;;;6.87;5.73;;;22.60;99.90;;;;;;4996878;28;20470;-65
2021/06/16 06:16:20;;;;;;;8.53;7.30;;;22.70;99.90;;;;;;4996504;28;20971;-65
2021/06/16 06:18:48;;;;;;;7.17;6.57;;;22.80;99.90;;;;;;4996908;28;20459;-65
2021/06/16 06:21:15;;;;;;;7.67;6.97;;;23.00;99.90;;;;;;4996817;28;20474;-65
2021/06/16 06:23:42;;;;;;;9.77;6.70;;;23.10;99.90;;;;;;4996769;28;20445;-65
2021/06/16 06:26:08;;;;;;;9.40;7.83;;;23.40;99.90;;;;;;4996508;28;20453;-65
2021/06/16 06:28:36;;;;;;;9.57;7.17;;;23.60;99.90;;;;;;4996459;28;20473;-65
2021/06/16 06:31:03;;;;;;;10.00;7.23;;;23.60;99.90;;;;;;4996497;28;20473;-64
2021/06/16 06:33:29;;;;;;;8.00;7.20;;;23.70;99.90;;;;;;4996328;28;20478;-65
2021/06/16 06:35:58;;;;;;;8.07;7.27;;;23.80;99.90;;;;;;4996235;28;20449;-65
2021/06/16 06:38:24;;;;;;;6.90;6.37;;;24.10;99.90;;;;;;4996295;28;20446;-65
2021/06/16 06:40:51;;;;;;;7.53;6.93;;;24.20;99.90;;;;;;4996238;28;20478;-65
2021/06/16 06:43:18;;;;;;;6.40;5.80;;;24.40;99.90;;;;;;4996196;28;20461;-65
2021/06/16 06:45:45;;;;;;;6.33;5.30;;;24.60;99.90;;;;;;4996181;28;20516;-65
2021/06/16 06:48:12;;;;;;;6.47;5.80;;;25.00;99.90;;;;;;4995838;28;20493;-65
2021/06/16 06:50:38;;;;;;;7.03;6.37;;;25.30;99.90;;;;;;4995831;28;20484;-65
2021/06/16 06:53:06;;;;;;;6.43;5.53;;;25.50;99.90;;;;;;4995981;28;20461;-65
2021/06/16 06:55:33;;;;;;;5.93;5.43;;;25.60;99.90;;;;;;4995934;28;20450;-65
2021/06/16 06:58:00;;;;;;;9.03;5.47;;;25.70;99.90;;;;;;4995844;28;20454;-65
2021/06/16 07:00:27;;;;;;;5.43;5.00;;;25.70;99.90;;;;;;4995612;28;20445;-65
2021/06/16 07:02:55;;;;;;;5.10;4.70;;;26.00;99.90;;;;;;4996002;28;20843;-65
2021/06/16 07:05:24;;;;;;;4.83;4.33;;;26.50;99.90;;;;;;4995936;28;20452;-65
2021/06/16 07:07:50;;;;;;;5.73;4.40;;;27.00;99.90;;;;;;4995829;28;20457;-65
2021/06/16 07:10:18;;;;;;;5.00;4.50;;;27.60;99.30;;;;;;4995755;28;20438;-65
2021/06/16 07:12:45;;;;;;;7.00;4.87;;;28.30;96.80;;;;;;4995334;28;20974;-65
2021/06/16 07:15:13;;;;;;;4.60;4.30;;;28.70;95.00;;;;;;4995694;28;20477;-65
2021/06/16 07:17:40;;;;;;;7.00;4.60;;;29.20;92.90;;;;;;4995524;28;20466;-66
2021/06/16 07:20:08;;;;;;;5.70;4.33;;;29.70;92.00;;;;;;4995963;28;20464;-66
2021/06/16 07:22:35;;;;;;;6.07;4.27;;;30.20;91.60;;;;;;4996169;28;20484;-66
2021/06/16 07:25:01;;;;;;;5.53;4.80;;;30.40;89.40;;;;;;4996043;28;20457;-66
2021/06/16 07:27:29;;;;;;;5.60;5.00;;;30.60;86.90;;;;;;4995785;28;20442;-66
2021/06/16 07:29:56;;;;;;;4.40;4.10;;;30.70;85.40;;;;;;4995349;28;20458;-66
2021/06/16 07:32:23;;;;;;;5.40;4.60;;;31.00;86.70;;;;;;4995099;28;20478;-66
2021/06/16 07:34:50;;;;;;;5.30;4.50;;;31.00;81.50;;;;;;4995062;28;20485;-66
2021/06/16 07:37:16;;;;;;;4.80;4.47;;;31.20;81.20;;;;;;4995134;28;20448;-66
2021/06/16 07:39:43;;;;;;;4.70;4.30;;;31.10;80.70;;;;;;4994913;28;20461;-66
2021/06/16 07:42:12;;;;;;;7.57;4.50;;;31.40;82.90;;;;;;4995122;28;21015;-65
2021/06/16 07:44:40;;;;;;;6.23;4.90;;;31.70;79.10;;;;;;4995023;28;20901;-66
2021/06/16 07:47:07;;;;;;;8.07;4.80;;;31.90;77.70;;;;;;4995044;28;20461;-66
2021/06/16 07:49:34;;;;;;;7.23;5.23;;;32.20;76.90;;;;;;4994989;28;20454;-65
2021/06/16 07:52:01;;;;;;;4.97;4.10;;;32.70;77.70;;;;;;4995130;28;20477;-66
2021/06/16 07:54:27;;;;;;;4.20;3.90;;;32.70;74.30;;;;;;4995431;28;20970;-66
2021/06/16 07:56:54;;;;;;;4.90;3.77;;;33.10;71.00;;;;;;4995094;28;20457;-65
2021/06/16 07:59:21;;;;;;;4.10;3.80;;;33.30;68.30;;;;;;4994632;28;20445;-65
2021/06/16 08:01:49;;;;;;;5.87;4.17;;;33.50;68.00;;;;;;4994206;28;20496;-64
2021/06/16 08:04:16;;;;;;;4.10;3.80;;;33.50;66.40;;;;;;4994624;28;20450;-65
2021/06/16 08:06:43;;;;;;;6.53;4.70;;;33.80;67.40;;;;;;4994612;28;20857;-65
2021/06/16 08:09:10;;;;;;;10.03;4.20;;;34.10;66.40;;;;;;4994705;28;20496;-65
2021/06/16 08:11:36;;;;;;;5.50;4.20;;;34.30;66.80;;;;;;4994537;28;20477;-67
2021/06/16 08:14:03;;;;;;;6.27;4.27;;;34.40;63.40;;;;;;4994308;28;20846;-65
2021/06/16 08:16:30;;;;;;;9.03;4.73;;;34.30;69.50;;;;;;4994693;28;20464;-66
2021/06/16 08:18:58;;;;;;;4.97;4.60;;;34.00;67.90;;;;;;4994741;28;20458;-66
2021/06/16 08:21:25;;;;;;;6.10;4.00;;;34.40;64.60;;;;;;4994813;28;20480;-66
2021/06/16 08:23:51;;;;;;;4.70;3.97;;;34.70;63.00;;;;;;4994511;28;20960;-65
2021/06/16 08:26:18;;;;;;;4.57;4.10;;;34.80;59.30;;;;;;4994410;28;20457;-65
2021/06/16 08:28:45;;;;;;;6.17;4.70;;;34.90;62.60;;;;;;4994332;28;20461;-65
2021/06/16 08:31:12;;;;;;;8.10;4.20;;;35.30;60.70;;;;;;4994297;28;20473;-65
2021/06/16 08:33:39;;;;;;;8.30;5.27;;;35.60;60.60;;;;;;4994327;28;20488;-65
2021/06/16 08:36:09;;;;;;;6.90;4.07;;;35.60;59.20;;;;;;4994414;28;20516;-65
2021/06/16 08:38:36;;;;;;;7.93;4.50;;;35.60;62.50;;;;;;4994330;28;20461;-66
2021/06/16 08:41:06;;;;;;;6.10;5.07;;;36.10;63.10;;;;;;4994227;28;20477;-65
2021/06/16 08:43:41;;;;;;;4.53;4.23;;;36.40;58.00;;;;;;4994371;28;20449;-66
2021/06/16 08:46:11;;;;;;;5.33;4.50;;;36.70;58.20;;;;;;4994359;28;20459;-66
2021/06/16 08:48:39;;;;;;;4.63;4.20;;;36.90;59.90;;;;;;4994482;28;20493;-65
2021/06/16 08:51:09;;;;;;;4.60;4.03;;;36.80;57.40;;;;;;4994374;28;20481;-66
2021/06/16 08:53:36;;;;;;;4.80;4.30;;;37.10;58.90;;;;;;4994829;28;20524;-66
2021/06/16 08:56:04;;;;;;;4.90;3.70;;;37.10;55.90;;;;;;4994844;28;21001;-66
2021/06/16 08:58:35;;;;;;;4.33;3.93;;;37.20;54.50;;;;;;4994225;28;20487;-66
2021/06/16 09:01:02;;;;;;;9.30;4.00;;;36.70;56.80;;;;;;4993911;28;20917;-66
2021/06/16 09:03:30;;;;;;;4.90;4.40;;;36.90;56.40;;;;;;4994184;28;20453;-66
2021/06/16 09:06:05;;;;;;;5.40;3.93;;;36.90;56.10;;;;;;4994022;28;20458;-66
2021/06/16 09:08:33;;;;;;;4.00;3.70;;;36.50;60.20;;;;;;4994089;28;20444;-66
2021/06/16 09:11:00;;;;;;;4.60;3.73;;;36.60;56.90;;;;;;4994082;28;20473;-66
2021/06/16 09:13:30;;;;;;;4.00;3.70;;;36.90;57.00;;;;;;4996187;28;20512;-66
2021/06/16 09:15:58;;;;;;;4.53;4.13;;;37.00;56.30;;;;;;4997968;28;20481;-66
2021/06/16 09:18:24;;;;;;;6.63;3.73;;;37.00;52.90;;;;;;4997964;28;20515;-66
2021/06/16 09:20:55;;;;;;;4.47;3.40;;;37.30;53.40;;;;;;4997946;28;20480;-66
2021/06/16 09:23:24;;;;;;;5.10;3.77;;;37.40;53.30;;;;;;4997905;28;20437;-66
2021/06/16 09:26:12;;;;;;;3.83;3.53;;;37.80;51.60;;;;;;4997422;28;20445;-66
2021/06/16 09:28:40;;;;;;;3.73;3.30;;;38.00;51.90;;;;;;4997689;28;20453;-66
2021/06/16 09:31:08;;;;;;;3.67;3.37;;;37.50;54.40;;;;;;4997590;28;20839;-66
2021/06/16 09:33:35;;;;;;;4.40;3.97;;;38.00;51.70;;;;;;4997713;28;20479;-66
2021/06/16 09:36:09;;;;;;;5.23;3.93;;;38.40;51.70;;;;;;4997524;28;20489;-66
2021/06/16 09:38:35;;;;;;;5.10;3.33;;;38.70;49.80;;;;;;4997607;28;20445;-66
2021/06/16 09:41:03;;;;;;;5.00;3.73;;;38.80;50.20;;;;;;4997460;28;20473;-66
2021/06/16 09:43:31;;;;;;;3.30;3.00;;;39.10;49.50;;;;;;4997376;28;20461;-66
2021/06/16 09:46:00;;;;;;;4.73;4.27;;;39.30;51.50;;;;;;4997396;28;20449;-66
2021/06/16 09:48:31;;;;;;;3.70;3.50;;;39.60;50.40;;;;;;4997276;28;20480;-66
2021/06/16 09:51:13;;;;;;;4.50;3.90;;;39.60;50.60;;;;;;4997268;28;20218;-66
2021/06/16 09:53:57;;;;;;;5.77;3.40;;;39.70;50.50;;;;;;4997314;28;20206;-66
2021/06/16 09:56:24;;;;;;;7.60;4.50;;;40.10;52.10;;;;;;4996947;28;20640;-66
2021/06/16 09:58:53;;;;;;;3.50;3.20;;;39.80;50.00;;;;;;4996912;28;20557;-66
2021/06/16 10:01:19;;;;;;;3.83;3.53;;;39.70;48.80;;;;;;4996725;28;20226;-66
2021/06/16 10:03:46;;;;;;;7.43;3.83;;;39.40;48.70;;;;;;4997031;28;20461;-66
2021/06/16 10:06:14;;;;;;;3.90;3.60;;;39.30;49.20;;;;;;4996670;28;20957;-67
2021/06/16 10:08:43;;;;;;;3.17;2.97;;;39.50;50.30;;;;;;4996973;28;20818;-65
2021/06/16 10:11:12;;;;;;;3.33;3.03;;;39.40;50.20;;;;;;4996843;28;20477;-65
2021/06/16 10:13:39;;;;;;;4.30;3.30;;;39.60;49.40;;;;;;4996871;28;20823;-65
2021/06/16 10:16:08;;;;;;;3.43;3.13;;;39.60;47.20;;;;;;4996665;28;20219;-65
2021/06/16 10:18:39;;;;;;;4.10;3.80;;;40.30;44.80;;;;;;4996422;28;20195;-66
2021/06/16 10:21:07;;;;;;;4.97;3.27;;;40.30;46.10;;;;;;4996587;28;20226;-65
2021/06/16 10:23:34;;;;;;;3.73;3.03;;;40.40;49.40;;;;;;4996510;28;20542;-66
2021/06/16 10:26:03;;;;;;;4.40;4.10;;;40.60;45.90;;;;;;4996611;28;20195;-67
2021/06/16 10:28:35;;;;;;;3.40;3.20;;;40.00;46.50;;;;;;4996441;28;20207;-65
2021/06/16 10:31:03;;;;;;;4.10;2.63;;;39.80;44.20;;;;;;4999298;28;20257;-65
2021/06/16 10:33:33;;;;;;;4.40;3.60;;;39.60;42.80;;;;;;4997365;28;20454;-67
2021/06/16 10:36:09;;;;;;;4.50;3.00;;;39.90;44.10;;;;;;4996983;28;20202;-67
2021/06/16 10:38:36;;;;;;;4.53;3.17;;;40.20;45.60;;;;;;4996458;28;20465;-66
2021/06/16 10:41:03;;;;;;;2.97;2.87;;;40.50;44.10;;;;;;4996418;28;20218;-65
2021/06/16 10:43:31;;;;;;;9.47;3.40;;;40.60;43.90;;;;;;4996621;28;20196;-66
2021/06/16 10:46:07;;;;;;;3.10;2.90;;;40.10;45.70;;;;;;4997288;28;20198;-65
2021/06/16 10:49:01;;;;;;;3.23;2.87;;;39.60;46.80;;;;;;4997014;28;20444;-67
2021/06/16 10:51:42;;;;;;;4.87;3.10;;;39.50;43.10;;;;;;4987974;28;20473;-65
2021/06/16 10:54:26;;;;;;;5.70;3.10;;;39.70;44.70;;;;;;4996061;28;20553;-66
2021/06/16 10:56:59;;;;;;;3.00;2.80;;;40.00;45.30;;;;;;4995886;28;20186;-65
2021/06/16 11:00:00;;;;;;;4.10;3.80;;;39.60;45.30;;;;;;4995940;28;20441;-66
2021/06/16 11:03:02;;;;;;;4.20;3.30;;;39.90;44.90;;;;;;4995563;28;20572;-66
2021/06/16 11:05:47;;;;;;;3.10;2.90;;;40.10;44.90;;;;;;4995611;28;20444;-67
2021/06/16 11:08:53;;;;;;;5.70;3.10;;;40.40;44.10;;;;;;4995900;28;20189;-67
2021/06/16 11:11:20;;;;;;;4.30;3.13;;;40.50;44.10;;;;;;4995910;28;20266;-67
2021/06/16 11:13:47;;;;;;;5.50;3.17;;;40.00;44.40;;;;;;4995372;28;20209;-67
2021/06/16 11:16:53;;;;;;;3.90;3.60;;;39.30;46.80;;;;;;4995650;28;20488;-67
2021/06/16 11:19:39;;;;;;;3.93;3.50;;;39.20;43.90;;;;;;4995473;28;20725;-67
2021/06/16 11:22:38;;;;;;;3.53;3.33;;;38.90;44.20;;;;;;4995829;28;20473;-66
2021/06/16 11:25:40;;;;;;;3.63;3.40;;;38.40;47.30;;;;;;4995562;28;20433;-66
2021/06/16 11:28:16;;;;;;;3.70;3.50;;;38.10;49.70;;;;;;4996075;28;20437;-66
2021/06/16 11:31:02;;;;;;;3.43;3.23;;;38.10;48.50;;;;;;4995902;28;20483;-65
2021/06/16 11:33:46;;;;;;;4.10;3.80;;;37.90;47.90;;;;;;4995811;28;20925;-67
2021/06/16 11:36:15;;;;;;;3.50;3.27;;;37.20;46.80;;;;;;4995144;28;20466;-67
2021/06/16 11:38:53;;;;;;;6.07;3.83;;;37.00;47.60;;;;;;4995983;28;20488;-67
2021/06/16 11:41:22;;;;;;;3.80;3.60;;;36.90;46.30;;;;;;4994787;28;20477;-67
2021/06/16 11:43:50;;;;;;;3.50;3.30;;;36.50;49.20;;;;;;4995149;28;20449;-67
2021/06/16 11:46:25;;;;;;;5.43;3.70;;;36.30;49.50;;;;;;4996022;28;20593;-66
2021/06/16 11:49:04;;;;;;;3.60;3.40;;;35.90;48.50;;;;;;4997282;28;20495;-65
2021/06/16 11:51:33;;;;;;;5.03;4.30;;;36.00;47.90;;;;;;4996393;28;21041;-65
2021/06/16 11:54:23;;;;;;;3.73;3.43;;;36.10;49.20;;;;;;4996433;28;20464;-65
2021/06/16 11:56:53;;;;;;;4.60;4.20;;;36.10;49.80;;;;;;4995126;28;20461;-66
2021/06/16 11:59:39;;;;;;;3.77;3.47;;;36.00;48.10;;;;;;4994838;28;20442;-67
2021/06/16 12:02:12;;;;;;;4.00;3.80;;;35.90;50.00;;;;;;4994436;28;20488;-67
2021/06/16 12:04:49;;;;;;;3.70;3.40;;;35.80;49.60;;;;;;4994786;28;20438;-67
2021/06/16 12:07:24;;;;;;;3.83;3.63;;;35.80;49.80;;;;;;4994696;28;20448;-66
2021/06/16 12:09:53;;;;;;;5.00;3.70;;;35.70;48.30;;;;;;4994580;28;20453;-66
2021/06/16 12:12:20;;;;;;;3.70;3.50;;;35.60;48.90;;;;;;4994586;28;20490;-66
2021/06/16 12:14:47;;;;;;;4.20;4.00;;;35.90;49.70;;;;;;4994529;28;20454;-65
2021/06/16 12:17:14;;;;;;;3.80;3.50;;;35.80;50.00;;;;;;4994631;28;20453;-66
2021/06/16 12:19:40;;;;;;;5.97;2.90;;;35.80;48.70;;;;;;4994535;28;20460;-66
2021/06/16 12:22:09;;;;;;;3.93;3.47;;;35.90;50.30;;;;;;4994623;28;20477;-65
2021/06/16 12:24:38;;;;;;;5.40;3.70;;;36.10;49.80;;;;;;4994502;28;20437;-66
2021/06/16 12:27:12;;;;;;;6.03;3.23;;;35.60;48.80;;;;;;4994406;28;20450;-65
2021/06/16 12:29:46;;;;;;;3.77;3.53;;;35.20;48.60;;;;;;4994080;28;20449;-65
2021/06/16 12:32:14;;;;;;;4.00;3.70;;;35.10;49.00;;;;;;4994370;28;20531;-65
2021/06/16 12:34:57;;;;;;;3.40;3.20;;;34.80;49.10;;;;;;4994392;28;20453;-65
2021/06/16 12:37:24;;;;;;;4.20;3.70;;;34.90;49.60;;;;;;4994293;28;20433;-65
2021/06/16 12:40:00;;;;;;;3.83;3.53;;;34.90;50.50;;;;;;4994197;28;20544;-65
2021/06/16 12:42:43;;;;;;;3.63;3.43;;;35.10;49.40;;;;;;4994316;28;20468;-65
2021/06/16 12:45:33;;;;;;;3.70;3.40;;;35.10;52.40;;;;;;4994232;28;20436;-65
2021/06/16 12:48:03;;;;;;;4.70;3.33;;;35.20;50.40;;;;;;4996191;28;20437;-66
2021/06/16 12:50:32;;;;;;;4.30;3.90;;;35.30;50.20;;;;;;4998821;28;20453;-66
2021/06/16 12:53:00;;;;;;;3.97;3.37;;;35.70;49.00;;;;;;4998420;28;20472;-65
2021/06/16 12:55:27;;;;;;;8.73;3.70;;;35.90;49.80;;;;;;4997840;28;20486;-65
2021/06/16 12:57:55;;;;;;;3.80;3.50;;;35.80;48.50;;;;;;4998300;28;20453;-65
2021/06/16 13:00:25;;;;;;;3.97;3.77;;;35.80;49.30;;;;;;4997863;28;20457;-66
2021/06/16 13:02:52;;;;;;;4.00;3.63;;;35.70;49.40;;;;;;4998111;28;20495;-66
2021/06/16 13:05:26;;;;;;;4.20;3.80;;;35.50;51.00;;;;;;4997786;28;20926;-66
2021/06/16 13:07:54;;;;;;;7.30;3.90;;;35.20;50.00;;;;;;4997809;28;20437;-65
2021/06/16 13:10:31;;;;;;;4.17;3.70;;;35.00;49.50;;;;;;4997737;28;20950;-65
2021/06/16 13:13:00;;;;;;;3.80;3.43;;;35.00;51.00;;;;;;4998079;28;20871;-66
2021/06/16 13:15:46;;;;;;;5.83;3.60;;;34.90;51.70;;;;;;4997988;28;20492;-66
2021/06/16 13:18:25;;;;;;;4.77;3.20;;;34.70;51.30;;;;;;4998335;28;20441;-66
2021/06/16 13:20:53;;;;;;;4.33;4.00;;;34.80;50.80;;;;;;4998094;28;20973;-66
2021/06/16 13:23:22;;;;;;;4.00;3.60;;;34.90;50.50;;;;;;4997668;28;20452;-66
2021/06/16 13:25:51;;;;;;;4.70;4.00;;;35.20;48.90;;;;;;4997697;28;20500;-66
2021/06/16 13:28:23;;;;;;;4.13;3.83;;;34.90;49.80;;;;;;4997905;28;20457;-66
2021/06/16 13:30:51;;;;;;;6.37;3.77;;;34.80;51.10;;;;;;4997660;28;20483;-66
2021/06/16 13:33:27;;;;;;;6.30;3.97;;;35.00;50.20;;;;;;4997900;28;20488;-66
2021/06/16 13:35:54;;;;;;;4.03;3.70;;;35.20;50.00;;;;;;4997712;28;20515;-66
2021/06/16 13:38:21;;;;;;;3.70;3.40;;;35.30;50.80;;;;;;4997936;28;20453;-66
2021/06/16 13:40:48;;;;;;;4.77;3.40;;;35.30;50.40;;;;;;4997821;28;20500;-66
2021/06/16 13:43:14;;;;;;;7.67;3.53;;;35.30;48.40;;;;;;4997796;28;20804;-66
2021/06/16 13:45:42;;;;;;;4.57;4.17;;;35.10;47.70;;;;;;4997793;28;20453;-66
2021/06/16 13:48:10;;;;;;;4.30;4.00;;;35.20;49.30;;;;;;4998067;28;20793;-66
2021/06/16 13:50:36;;;;;;;3.50;3.30;;;35.00;53.00;;;;;;4997570;28;20477;-69
2021/06/16 13:53:03;;;;;;;10.00;4.03;;;35.10;50.30;;;;;;4997676;28;20464;-66
2021/06/16 13:55:30;;;;;;;3.73;3.47;;;35.00;50.40;;;;;;4997277;28;20449;-66
2021/06/16 13:57:57;;;;;;;4.07;3.50;;;35.00;49.60;;;;;;4997386;28;20479;-66
2021/06/16 14:00:24;;;;;;;4.10;3.90;;;34.80;49.30;;;;;;4996895;28;20462;-66
2021/06/16 14:02:52;;;;;;;4.47;4.07;;;34.70;50.70;;;;;;4997330;28;20441;-66
2021/06/16 14:05:18;;;;;;;3.67;3.33;;;34.60;49.40;;;;;;4997153;28;20457;-66
2021/06/16 14:07:45;;;;;;;4.20;3.90;;;34.60;50.90;;;;;;4997320;28;20946;-66
2021/06/16 14:10:13;;;;;;;4.60;4.10;;;34.50;51.40;;;;;;4997403;28;20460;-66
2021/06/16 14:12:40;;;;;;;6.43;3.60;;;34.10;50.40;;;;;;4997179;28;20478;-66
2021/06/16 14:15:09;;;;;;;4.20;3.87;;;34.20;50.70;;;;;;4997171;28;20461;-66
2021/06/16 14:17:36;;;;;;;4.07;3.77;;;34.10;50.60;;;;;;4996958;28;20473;-66
2021/06/16 14:20:07;;;;;;;4.57;4.17;;;34.20;51.90;;;;;;4996925;28;20441;-66
2021/06/16 14:22:34;;;;;;;3.73;3.43;;;34.30;52.80;;;;;;5001569;28;20485;-66
2021/06/16 14:25:01;;;;;;;3.90;3.70;;;34.50;51.20;;;;;;4996633;28;20946;-65
2021/06/16 14:27:28;;;;;;;3.40;3.20;;;34.70;53.30;;;;;;4996543;28;20935;-65
2021/06/16 14:29:55;;;;;;;4.13;3.73;;;34.90;52.60;;;;;;4997454;28;20460;-65
2021/06/16 14:32:22;;;;;;;6.00;3.70;;;34.90;51.40;;;;;;4996501;28;20553;-65
2021/06/16 14:34:50;;;;;;;7.10;3.60;;;34.80;51.10;;;;;;4996488;28;20453;-65
2021/06/16 14:37:18;;;;;;;4.00;3.60;;;34.70;50.60;;;;;;4996261;28;20544;-65
2021/06/16 14:39:45;;;;;;;4.00;3.70;;;34.60;51.40;;;;;;4996238;28;20942;-65
2021/06/16 14:42:12;;;;;;;3.70;3.50;;;34.40;50.30;;;;;;4996514;28;20477;-65
2021/06/16 14:44:39;;;;;;;3.90;3.60;;;34.10;51.70;;;;;;4996517;28;20457;-65
2021/06/16 14:47:07;;;;;;;3.37;3.27;;;34.30;51.70;;;;;;4996361;28;20955;-66
2021/06/16 14:49:34;;;;;;;5.20;3.90;;;34.40;50.70;;;;;;4997790;28;20819;-65
2021/06/16 14:52:00;;;;;;;3.67;3.37;;;34.40;50.80;;;;;;4997979;28;20473;-64
2021/06/16 14:54:28;;;;;;;5.07;3.73;;;34.30;52.20;;;;;;4998200;28;20457;-64
2021/06/16 14:56:55;;;;;;;4.00;3.70;;;34.50;50.60;;;;;;4998579;28;20476;-65
2021/06/16 14:59:22;;;;;;;3.90;3.70;;;34.40;50.10;;;;;;4997296;28;20457;-65
2021/06/16 15:01:49;;;;;;;4.90;3.97;;;34.50;51.00;;;;;;4996999;28;20569;-65
2021/06/16 15:04:15;;;;;;;7.07;4.10;;;34.30;51.10;;;;;;4997361;28;20453;-66
2021/06/16 15:06:44;;;;;;;4.27;3.97;;;34.40;50.70;;;;;;4997090;28;20449;-65
2021/06/16 15:09:11;;;;;;;4.73;3.47;;;34.50;51.20;;;;;;4997319;28;20457;-65
2021/06/16 15:11:39;;;;;;;4.37;4.17;;;34.50;50.50;;;;;;4997229;28;20473;-65
2021/06/16 15:14:06;;;;;;;4.37;3.97;;;34.30;51.40;;;;;;4997468;28;20957;-65
2021/06/16 15:16:33;;;;;;;4.23;3.80;;;34.00;50.20;;;;;;4996082;28;20481;-65
2021/06/16 15:18:59;;;;;;;4.73;4.20;;;33.90;50.40;;;;;;4996263;28;20460;-67
2021/06/16 15:21:26;;;;;;;3.53;3.30;;;33.80;51.80;;;;;;4996773;28;20473;-64
2021/06/16 15:23:53;;;;;;;4.00;3.70;;;33.90;53.40;;;;;;4995933;28;20477;-65
2021/06/16 15:26:20;;;;;;;5.40;3.93;;;33.90;51.80;;;;;;4995771;28;20464;-66
2021/06/16 15:28:49;;;;;;;4.13;3.90;;;33.90;53.30;;;;;;4995525;28;20841;-66
2021/06/16 15:31:17;;;;;;;5.43;3.77;;;33.90;53.80;;;;;;4995425;28;20484;-65
2021/06/16 15:33:45;;;;;;;4.80;4.40;;;34.00;51.60;;;;;;4995441;28;20454;-66
2021/06/16 15:36:12;;;;;;;4.17;3.50;;;33.80;52.50;;;;;;4995375;28;20481;-65
2021/06/16 15:38:40;;;;;;;4.77;3.93;;;33.70;53.10;;;;;;4995354;28;20480;-64
2021/06/16 15:41:09;;;;;;;3.73;3.53;;;33.70;52.00;;;;;;4995368;28;20504;-66
2021/06/16 15:43:36;;;;;;;4.27;3.87;;;33.80;51.50;;;;;;4995089;28;20814;-67
2021/06/16 15:46:04;;;;;;;3.93;3.70;;;33.80;50.70;;;;;;4995377;28;20460;-66
2021/06/16 15:48:31;;;;;;;4.50;4.20;;;33.70;51.70;;;;;;4995168;28;20845;-66
2021/06/16 15:50:59;;;;;;;4.13;3.83;;;33.60;52.50;;;;;;4995030;28;20477;-66
2021/06/16 15:53:26;;;;;;;4.23;3.83;;;33.50;54.50;;;;;;4995216;28;20481;-66
2021/06/16 15:55:53;;;;;;;4.50;4.10;;;33.50;52.90;;;;;;4994791;28;20962;-66
2021/06/16 15:58:20;;;;;;;3.70;3.50;;;33.30;53.00;;;;;;4995119;28;20480;-66
2021/06/16 16:00:47;;;;;;;3.90;3.50;;;33.40;52.40;;;;;;4994698;28;20485;-66
2021/06/16 16:03:15;;;;;;;3.80;3.50;;;33.50;52.90;;;;;;4995033;28;20480;-66
2021/06/16 16:05:42;;;;;;;4.80;4.40;;;33.60;52.10;;;;;;4994939;28;20453;-65
2021/06/16 16:08:09;;;;;;;3.80;3.50;;;33.60;51.70;;;;;;4994554;28;20458;-65
2021/06/16 16:10:36;;;;;;;3.63;3.43;;;33.60;51.30;;;;;;4994631;28;20453;-65
2021/06/16 16:13:04;;;;;;;4.40;4.10;;;33.40;51.10;;;;;;4994924;28;20453;-65
2021/06/16 16:15:31;;;;;;;3.90;3.60;;;33.30;50.70;;;;;;4994788;28;20484;-64
2021/06/16 16:17:58;;;;;;;4.77;4.07;;;33.40;51.10;;;;;;4994668;28;20484;-65
2021/06/16 16:20:26;;;;;;;3.93;3.63;;;33.30;50.10;;;;;;4994400;28;20950;-65
2021/06/16 16:22:52;;;;;;;4.70;4.10;;;33.30;50.50;;;;;;4994574;28;20453;-65
2021/06/16 16:25:20;;;;;;;4.30;3.90;;;33.20;50.90;;;;;;4994554;28;20434;-67
2021/06/16 16:27:47;;;;;;;4.60;3.77;;;33.30;51.20;;;;;;4994839;28;20570;-67
2021/06/16 16:30:15;;;;;;;4.97;4.00;;;33.30;50.30;;;;;;4994859;28;20462;-67
2021/06/16 16:32:42;;;;;;;4.30;4.00;;;33.40;50.70;;;;;;4994624;28;21037;-67
2021/06/16 16:35:10;;;;;;;3.77;3.40;;;33.50;50.80;;;;;;4994778;28;20453;-66
2021/06/16 16:37:38;;;;;;;3.90;3.60;;;33.60;51.20;;;;;;4994428;28;21049;-67
2021/06/16 16:40:07;;;;;;;4.33;4.07;;;33.40;51.40;;;;;;4995307;28;20454;-67
2021/06/16 16:42:34;;;;;;;4.23;3.93;;;33.50;51.20;;;;;;4994806;28;20509;-67
2021/06/16 16:45:01;;;;;;;4.50;3.93;;;33.60;51.00;;;;;;4994647;28;20457;-67
2021/06/16 16:47:27;;;;;;;3.73;3.40;;;33.40;51.40;;;;;;4995317;28;20970;-67
2021/06/16 16:49:54;;;;;;;3.77;3.53;;;33.40;52.20;;;;;;4997599;28;20460;-67
2021/06/16 16:52:21;;;;;;;5.33;4.00;;;33.40;52.00;;;;;;4997952;28;20473;-66
2021/06/16 16:54:49;;;;;;;5.00;3.93;;;33.50;53.20;;;;;;4998567;28;20457;-66
2021/06/16 16:57:16;;;;;;;4.13;3.83;;;33.30;53.20;;;;;;4995856;28;20480;-66